sensor_id;sensor_type;location;lat;lon;timestamp;P1;durP1;ratioP1;P2;durP2;ratioP2
51491;SDS011;37569;50.548;8.778;2022-07-29T00:03:48;5.2;;;2;;
51491;SDS011;37569;50.548;8.778;2022-07-29T00:08:48;6.5;;;2.1;;
51491;SDS011;37569;50.548;8.778;2022-07-29T00:13:49;4;;;2.1;;
51491;SDS011;37569;50.548;8.778;2022-07-29T00:18:50;4.7;;;2.1;;
51491;SDS011;37569;50.548;8.778;2022-07-29T00:23:51;3.7;;;2;;
51491;SDS011;37569;50.548;8.778;2022-07-29T00:28:52;3.8;;;2;;
51491;SDS011;37569;50.548;8.778;2022-07-29T00:33:53;4.5;;;2.1;;
51491;SDS011;37569;50.548;8.778;2022-07-29T00:38:53;6.6;;;2;;
51491;SDS011;37569;50.548;8.778;2022-07-29T00:43:54;6.5;;;2.2;;
51491;SDS011;37569;50.548;8.778;2022-07-29T00:48:55;3.8;;;2;;
51491;SDS011;37569;50.548;8.778;2022-07-29T00:53:56;4.5;;;2;;
51491;SDS011;37569;50.548;8.778;2022-07-29T00:58:57;7;;;2;;
51491;SDS011;37569;50.548;8.778;2022-07-29T01:03:57;4.9;;;2.1;;
51491;SDS011;37569;50.548;8.778;2022-07-29T01:08:58;4.2;;;1.9;;
51491;SDS011;37569;50.548;8.778;2022-07-29T01:13:59;4.8;;;2.1;;
51491;SDS011;37569;50.548;8.778;2022-07-29T01:19:00;6.4;;;2;;
51491;SDS011;37569;50.548;8.778;2022-07-29T01:24:09;4.9;;;2;;
51491;SDS011;37569;50.548;8.778;2022-07-29T01:29:02;3.9;;;2;;
51491;SDS011;37569;50.548;8.778;2022-07-29T01:34:03;5.7;;;1.8;;
51491;SDS011;37569;50.548;8.778;2022-07-29T01:39:05;3;;;2;;
51491;SDS011;37569;50.548;8.778;2022-07-29T01:44:07;3.6;;;1.8;;
51491;SDS011;37569;50.548;8.778;2022-07-29T01:49:06;4.2;;;1.6;;
51491;SDS011;37569;50.548;8.778;2022-07-29T01:54:06;6.2;;;1.7;;
51491;SDS011;37569;50.548;8.778;2022-07-29T01:59:06;4;;;1.7;;
51491;SDS011;37569;50.548;8.778;2022-07-29T02:04:07;4.9;;;2.3;;
51491;SDS011;37569;50.548;8.778;2022-07-29T02:09:07;4.6;;;1.9;;
51491;SDS011;37569;50.548;8.778;2022-07-29T02:14:08;3.8;;;2;;
51491;SDS011;37569;50.548;8.778;2022-07-29T02:19:09;4.3;;;2.3;;
51491;SDS011;37569;50.548;8.778;2022-07-29T02:24:09;7.9;;;2.6;;
51491;SDS011;37569;50.548;8.778;2022-07-29T02:29:10;5.2;;;2.2;;
51491;SDS011;37569;50.548;8.778;2022-07-29T02:34:11;5.1;;;2.3;;
51491;SDS011;37569;50.548;8.778;2022-07-29T02:39:12;5.7;;;2.4;;
51491;SDS011;37569;50.548;8.778;2022-07-29T02:44:13;5.1;;;2.3;;
51491;SDS011;37569;50.548;8.778;2022-07-29T02:49:14;7.1;;;3.1;;
51491;SDS011;37569;50.548;8.778;2022-07-29T02:54:21;7.2;;;3;;
51491;SDS011;37569;50.548;8.778;2022-07-29T02:59:14;6.1;;;3;;
51491;SDS011;37569;50.548;8.778;2022-07-29T03:04:15;6.3;;;2.8;;
51491;SDS011;37569;50.548;8.778;2022-07-29T03:09:16;5.6;;;2.8;;
51491;SDS011;37569;50.548;8.778;2022-07-29T03:14:17;8;;;3;;
51491;SDS011;37569;50.548;8.778;2022-07-29T03:19:17;6.2;;;3.4;;
51491;SDS011;37569;50.548;8.778;2022-07-29T03:24:25;6.5;;;3.3;;
51491;SDS011;37569;50.548;8.778;2022-07-29T03:29:18;6.4;;;2.8;;
51491;SDS011;37569;50.548;8.778;2022-07-29T03:34:19;7;;;2.9;;
51491;SDS011;37569;50.548;8.778;2022-07-29T03:39:20;6.9;;;2.8;;
51491;SDS011;37569;50.548;8.778;2022-07-29T03:44:20;5.6;;;2.6;;
51491;SDS011;37569;50.548;8.778;2022-07-29T03:49:21;6;;;2.7;;
51491;SDS011;37569;50.548;8.778;2022-07-29T03:54:21;4.1;;;2.5;;
51491;SDS011;37569;50.548;8.778;2022-07-29T03:59:22;5;;;2.6;;
51491;SDS011;37569;50.548;8.778;2022-07-29T04:04:23;5.8;;;3;;
51491;SDS011;37569;50.548;8.778;2022-07-29T04:09:23;6;;;2.9;;
51491;SDS011;37569;50.548;8.778;2022-07-29T04:14:24;5.8;;;3.1;;
51491;SDS011;37569;50.548;8.778;2022-07-29T04:19:25;8.3;;;3.4;;
51491;SDS011;37569;50.548;8.778;2022-07-29T04:24:25;11.3;;;3.8;;
51491;SDS011;37569;50.548;8.778;2022-07-29T04:29:26;7.8;;;3.7;;
51491;SDS011;37569;50.548;8.778;2022-07-29T04:34:27;6.8;;;4;;
51491;SDS011;37569;50.548;8.778;2022-07-29T04:39:27;7.1;;;3.2;;
51491;SDS011;37569;50.548;8.778;2022-07-29T04:44:28;6.8;;;3;;
51491;SDS011;37569;50.548;8.778;2022-07-29T04:49:28;7.5;;;3.4;;
51491;SDS011;37569;50.548;8.778;2022-07-29T04:54:29;7.6;;;3.3;;
51491;SDS011;37569;50.548;8.778;2022-07-29T04:59:30;7.4;;;3.4;;
51491;SDS011;37569;50.548;8.778;2022-07-29T05:04:30;9.7;;;3.6;;
51491;SDS011;37569;50.548;8.778;2022-07-29T05:09:31;6.5;;;3.5;;
51491;SDS011;37569;50.548;8.778;2022-07-29T05:14:31;5.9;;;3.1;;
51491;SDS011;37569;50.548;8.778;2022-07-29T05:19:32;6.1;;;2.9;;
51491;SDS011;37569;50.548;8.778;2022-07-29T05:24:33;6.3;;;3;;
51491;SDS011;37569;50.548;8.778;2022-07-29T05:29:33;5.1;;;2.8;;
51491;SDS011;37569;50.548;8.778;2022-07-29T05:34:34;6.7;;;2.9;;
51491;SDS011;37569;50.548;8.778;2022-07-29T05:39:34;6.4;;;2.9;;
51491;SDS011;37569;50.548;8.778;2022-07-29T05:44:36;7.6;;;3.1;;
51491;SDS011;37569;50.548;8.778;2022-07-29T05:49:36;6.6;;;3.3;;
51491;SDS011;37569;50.548;8.778;2022-07-29T05:54:36;6.4;;;3.3;;
51491;SDS011;37569;50.548;8.778;2022-07-29T05:59:37;7.9;;;3.8;;
51491;SDS011;37569;50.548;8.778;2022-07-29T06:04:38;5.7;;;3.5;;
51491;SDS011;37569;50.548;8.778;2022-07-29T06:09:38;6.1;;;3.4;;
51491;SDS011;37569;50.548;8.778;2022-07-29T06:14:39;6.2;;;3.2;;
51491;SDS011;37569;50.548;8.778;2022-07-29T06:19:39;5.7;;;3.3;;
51491;SDS011;37569;50.548;8.778;2022-07-29T06:24:40;6.7;;;3.1;;
51491;SDS011;37569;50.548;8.778;2022-07-29T06:29:41;4.2;;;2.9;;
51491;SDS011;37569;50.548;8.778;2022-07-29T06:34:42;6.6;;;3.1;;
51491;SDS011;37569;50.548;8.778;2022-07-29T06:39:42;5.7;;;2.8;;
51491;SDS011;37569;50.548;8.778;2022-07-29T06:44:43;5.7;;;2.7;;
51491;SDS011;37569;50.548;8.778;2022-07-29T06:49:44;7.6;;;2.7;;
51491;SDS011;37569;50.548;8.778;2022-07-29T06:54:45;4.3;;;2.6;;
51491;SDS011;37569;50.548;8.778;2022-07-29T06:59:46;8.3;;;2.7;;
51491;SDS011;37569;50.548;8.778;2022-07-29T07:04:46;5.5;;;2.7;;
51491;SDS011;37569;50.548;8.778;2022-07-29T07:09:47;5.2;;;2.6;;
51491;SDS011;37569;50.548;8.778;2022-07-29T07:14:48;5.6;;;2.7;;
51491;SDS011;37569;50.548;8.778;2022-07-29T07:19:49;5.4;;;2.8;;
51491;SDS011;37569;50.548;8.778;2022-07-29T07:24:50;4.8;;;2.5;;
51491;SDS011;37569;50.548;8.778;2022-07-29T07:29:51;3.3;;;2.3;;
51491;SDS011;37569;50.548;8.778;2022-07-29T07:34:52;5.9;;;2.8;;
51491;SDS011;37569;50.548;8.778;2022-07-29T07:39:53;5.4;;;2.5;;
51491;SDS011;37569;50.548;8.778;2022-07-29T07:44:54;5.1;;;2.8;;
51491;SDS011;37569;50.548;8.778;2022-07-29T07:49:55;5;;;2.8;;
51491;SDS011;37569;50.548;8.778;2022-07-29T07:54:56;5.3;;;2.7;;
51491;SDS011;37569;50.548;8.778;2022-07-29T07:59:56;6.8;;;2.6;;
51491;SDS011;37569;50.548;8.778;2022-07-29T08:04:57;5.3;;;2.5;;
51491;SDS011;37569;50.548;8.778;2022-07-29T08:09:58;5.5;;;2.6;;
51491;SDS011;37569;50.548;8.778;2022-07-29T08:14:59;6.6;;;2.6;;
51491;SDS011;37569;50.548;8.778;2022-07-29T08:20:00;6.7;;;2.7;;
51491;SDS011;37569;50.548;8.778;2022-07-29T08:25:01;5.1;;;2.5;;
51491;SDS011;37569;50.548;8.778;2022-07-29T08:30:02;4.6;;;2.8;;
51491;SDS011;37569;50.548;8.778;2022-07-29T08:35:03;6.1;;;2.9;;
51491;SDS011;37569;50.548;8.778;2022-07-29T08:40:04;5.5;;;2.5;;
51491;SDS011;37569;50.548;8.778;2022-07-29T08:45:05;4.8;;;2.6;;
51491;SDS011;37569;50.548;8.778;2022-07-29T08:50:06;6;;;2.8;;
51491;SDS011;37569;50.548;8.778;2022-07-29T08:55:07;3.4;;;2.6;;
51491;SDS011;37569;50.548;8.778;2022-07-29T09:00:08;5.4;;;2.8;;
51491;SDS011;37569;50.548;8.778;2022-07-29T09:05:09;5.9;;;2.8;;
51491;SDS011;37569;50.548;8.778;2022-07-29T09:10:10;5.7;;;2.7;;
51491;SDS011;37569;50.548;8.778;2022-07-29T09:15:11;4.2;;;2.6;;
51491;SDS011;37569;50.548;8.778;2022-07-29T09:20:12;6.4;;;2.8;;
51491;SDS011;37569;50.548;8.778;2022-07-29T09:25:13;4.5;;;2.6;;
51491;SDS011;37569;50.548;8.778;2022-07-29T09:30:14;5.6;;;2.6;;
51491;SDS011;37569;50.548;8.778;2022-07-29T09:35:16;4.7;;;2.7;;
51491;SDS011;37569;50.548;8.778;2022-07-29T09:40:16;4.8;;;2.8;;
51491;SDS011;37569;50.548;8.778;2022-07-29T09:45:26;6.3;;;2.8;;
51491;SDS011;37569;50.548;8.778;2022-07-29T09:50:18;6.9;;;2.7;;
51491;SDS011;37569;50.548;8.778;2022-07-29T09:55:19;4.7;;;2.7;;
51491;SDS011;37569;50.548;8.778;2022-07-29T10:00:20;6.6;;;2.7;;
51491;SDS011;37569;50.548;8.778;2022-07-29T10:05:22;4.9;;;2.7;;
51491;SDS011;37569;50.548;8.778;2022-07-29T10:10:23;4.6;;;2.8;;
51491;SDS011;37569;50.548;8.778;2022-07-29T10:15:24;5.1;;;2.9;;
51491;SDS011;37569;50.548;8.778;2022-07-29T10:20:25;4.3;;;2.6;;
51491;SDS011;37569;50.548;8.778;2022-07-29T10:25:26;5.1;;;2.7;;
51491;SDS011;37569;50.548;8.778;2022-07-29T10:30:27;4.9;;;3;;
51491;SDS011;37569;50.548;8.778;2022-07-29T10:35:32;3.9;;;2.7;;
51491;SDS011;37569;50.548;8.778;2022-07-29T10:40:33;5.8;;;2.7;;
51491;SDS011;37569;50.548;8.778;2022-07-29T10:45:30;4.4;;;2.7;;
51491;SDS011;37569;50.548;8.778;2022-07-29T10:50:51;5.3;;;2.9;;
51491;SDS011;37569;50.548;8.778;2022-07-29T10:55:33;4.1;;;2.8;;
51491;SDS011;37569;50.548;8.778;2022-07-29T11:00:34;5.5;;;2.8;;
51491;SDS011;37569;50.548;8.778;2022-07-29T11:05:57;3.7;;;3;;
51491;SDS011;37569;50.548;8.778;2022-07-29T11:10:36;3.9;;;2.9;;
51491;SDS011;37569;50.548;8.778;2022-07-29T11:15:52;3.2;;;2.5;;
51491;SDS011;37569;50.548;8.778;2022-07-29T11:20:39;4.8;;;2.9;;
51491;SDS011;37569;50.548;8.778;2022-07-29T11:25:40;4.4;;;2.7;;
51491;SDS011;37569;50.548;8.778;2022-07-29T11:30:49;4.9;;;2.7;;
51491;SDS011;37569;50.548;8.778;2022-07-29T11:35:42;4.8;;;3.1;;
51491;SDS011;37569;50.548;8.778;2022-07-29T11:40:48;3.6;;;2.9;;
51491;SDS011;37569;50.548;8.778;2022-07-29T11:45:45;5.4;;;3;;
51491;SDS011;37569;50.548;8.778;2022-07-29T11:50:46;4.8;;;3;;
51491;SDS011;37569;50.548;8.778;2022-07-29T11:55:47;5;;;2.8;;
51491;SDS011;37569;50.548;8.778;2022-07-29T12:00:48;5.6;;;3.1;;
51491;SDS011;37569;50.548;8.778;2022-07-29T12:05:50;4.9;;;2.8;;
51491;SDS011;37569;50.548;8.778;2022-07-29T12:10:51;4;;;3.1;;
51491;SDS011;37569;50.548;8.778;2022-07-29T12:15:53;6.7;;;3.1;;
51491;SDS011;37569;50.548;8.778;2022-07-29T12:20:57;3.9;;;2.9;;
51491;SDS011;37569;50.548;8.778;2022-07-29T12:25:55;5.2;;;2.8;;
51491;SDS011;37569;50.548;8.778;2022-07-29T12:30:56;5.4;;;2.9;;
51491;SDS011;37569;50.548;8.778;2022-07-29T12:35:57;4.6;;;3.2;;
51491;SDS011;37569;50.548;8.778;2022-07-29T12:40:58;4.2;;;2.8;;
51491;SDS011;37569;50.548;8.778;2022-07-29T12:46:10;4.4;;;2.9;;
51491;SDS011;37569;50.548;8.778;2022-07-29T12:51:01;3.7;;;2.9;;
51491;SDS011;37569;50.548;8.778;2022-07-29T12:56:02;3.8;;;2.8;;
51491;SDS011;37569;50.548;8.778;2022-07-29T13:01:04;3.4;;;2.8;;
51491;SDS011;37569;50.548;8.778;2022-07-29T13:06:05;4.4;;;2.9;;
51491;SDS011;37569;50.548;8.778;2022-07-29T13:11:06;4.7;;;3.1;;
51491;SDS011;37569;50.548;8.778;2022-07-29T13:16:07;4.1;;;2.8;;
51491;SDS011;37569;50.548;8.778;2022-07-29T13:21:10;4;;;3;;
51491;SDS011;37569;50.548;8.778;2022-07-29T13:26:10;3.9;;;2.9;;
51491;SDS011;37569;50.548;8.778;2022-07-29T13:31:11;5.4;;;3.1;;
51491;SDS011;37569;50.548;8.778;2022-07-29T13:36:12;4.6;;;2.9;;
51491;SDS011;37569;50.548;8.778;2022-07-29T13:41:13;3.2;;;2.8;;
51491;SDS011;37569;50.548;8.778;2022-07-29T13:46:14;3.9;;;2.9;;
51491;SDS011;37569;50.548;8.778;2022-07-29T13:51:16;5.3;;;3.1;;
51491;SDS011;37569;50.548;8.778;2022-07-29T13:56:17;3.8;;;2.9;;
51491;SDS011;37569;50.548;8.778;2022-07-29T14:01:18;4.1;;;2.8;;
51491;SDS011;37569;50.548;8.778;2022-07-29T14:06:19;5.1;;;3;;
51491;SDS011;37569;50.548;8.778;2022-07-29T14:11:21;4.3;;;3;;
51491;SDS011;37569;50.548;8.778;2022-07-29T14:16:22;4.7;;;2.9;;
51491;SDS011;37569;50.548;8.778;2022-07-29T14:21:23;4.4;;;2.9;;
51491;SDS011;37569;50.548;8.778;2022-07-29T14:26:24;3.5;;;2.8;;
51491;SDS011;37569;50.548;8.778;2022-07-29T14:31:25;4.5;;;3.1;;
51491;SDS011;37569;50.548;8.778;2022-07-29T14:36:27;4.5;;;3;;
51491;SDS011;37569;50.548;8.778;2022-07-29T14:41:28;4.4;;;2.8;;
51491;SDS011;37569;50.548;8.778;2022-07-29T14:46:29;5;;;2.8;;
51491;SDS011;37569;50.548;8.778;2022-07-29T14:51:30;5.2;;;2.8;;
51491;SDS011;37569;50.548;8.778;2022-07-29T14:56:31;4;;;2.9;;
51491;SDS011;37569;50.548;8.778;2022-07-29T15:01:33;4.4;;;3;;
51491;SDS011;37569;50.548;8.778;2022-07-29T15:06:34;4;;;2.9;;
51491;SDS011;37569;50.548;8.778;2022-07-29T15:11:35;4.7;;;3.1;;
51491;SDS011;37569;50.548;8.778;2022-07-29T15:16:36;4.7;;;3;;
51491;SDS011;37569;50.548;8.778;2022-07-29T15:21:37;3.9;;;2.9;;
51491;SDS011;37569;50.548;8.778;2022-07-29T15:26:38;6.5;;;3;;
51491;SDS011;37569;50.548;8.778;2022-07-29T15:31:40;3.7;;;3;;
51491;SDS011;37569;50.548;8.778;2022-07-29T15:36:41;5.2;;;3.7;;
51491;SDS011;37569;50.548;8.778;2022-07-29T15:41:42;5.8;;;3.6;;
51491;SDS011;37569;50.548;8.778;2022-07-29T15:46:43;5.4;;;3.6;;
51491;SDS011;37569;50.548;8.778;2022-07-29T15:51:44;4.4;;;3.5;;
51491;SDS011;37569;50.548;8.778;2022-07-29T15:56:45;4.4;;;3.6;;
51491;SDS011;37569;50.548;8.778;2022-07-29T16:01:47;4.4;;;3.5;;
51491;SDS011;37569;50.548;8.778;2022-07-29T16:06:48;6;;;3.5;;
51491;SDS011;37569;50.548;8.778;2022-07-29T16:11:48;4.4;;;3.1;;
51491;SDS011;37569;50.548;8.778;2022-07-29T16:16:50;4.6;;;3.7;;
51491;SDS011;37569;50.548;8.778;2022-07-29T16:21:51;5.9;;;3.8;;
51491;SDS011;37569;50.548;8.778;2022-07-29T16:26:52;5.4;;;3.7;;
51491;SDS011;37569;50.548;8.778;2022-07-29T16:31:53;6.7;;;4.1;;
51491;SDS011;37569;50.548;8.778;2022-07-29T16:36:54;5.6;;;4;;
51491;SDS011;37569;50.548;8.778;2022-07-29T16:41:55;6.4;;;3.9;;
51491;SDS011;37569;50.548;8.778;2022-07-29T16:46:56;5.6;;;4.2;;
51491;SDS011;37569;50.548;8.778;2022-07-29T16:51:57;5.5;;;3.8;;
51491;SDS011;37569;50.548;8.778;2022-07-29T16:56:58;4.9;;;3.7;;
51491;SDS011;37569;50.548;8.778;2022-07-29T17:01:59;4.9;;;3.6;;
51491;SDS011;37569;50.548;8.778;2022-07-29T17:07:00;5;;;3.6;;
51491;SDS011;37569;50.548;8.778;2022-07-29T17:12:01;5.3;;;3.9;;
51491;SDS011;37569;50.548;8.778;2022-07-29T17:17:02;4;;;3.5;;
51491;SDS011;37569;50.548;8.778;2022-07-29T17:22:04;4.2;;;3.7;;
51491;SDS011;37569;50.548;8.778;2022-07-29T17:27:04;5.3;;;4.2;;
51491;SDS011;37569;50.548;8.778;2022-07-29T17:32:06;5.9;;;4.2;;
51491;SDS011;37569;50.548;8.778;2022-07-29T17:37:07;6;;;3.9;;
51491;SDS011;37569;50.548;8.778;2022-07-29T17:42:08;4.1;;;3.7;;
51491;SDS011;37569;50.548;8.778;2022-07-29T17:47:09;4.1;;;3.2;;
51491;SDS011;37569;50.548;8.778;2022-07-29T17:52:10;4;;;3.2;;
51491;SDS011;37569;50.548;8.778;2022-07-29T17:57:11;3.7;;;3;;
51491;SDS011;37569;50.548;8.778;2022-07-29T18:02:12;3.8;;;3.4;;
51491;SDS011;37569;50.548;8.778;2022-07-29T18:07:13;4.7;;;3.1;;
51491;SDS011;37569;50.548;8.778;2022-07-29T18:12:14;3.3;;;3;;
51491;SDS011;37569;50.548;8.778;2022-07-29T18:17:15;4.4;;;3;;
51491;SDS011;37569;50.548;8.778;2022-07-29T18:22:15;4.5;;;2.5;;
51491;SDS011;37569;50.548;8.778;2022-07-29T18:27:16;3.2;;;2.4;;
51491;SDS011;37569;50.548;8.778;2022-07-29T18:32:17;2.7;;;2.3;;
51491;SDS011;37569;50.548;8.778;2022-07-29T18:37:18;2.9;;;2.3;;
51491;SDS011;37569;50.548;8.778;2022-07-29T18:42:19;3.3;;;2.5;;
51491;SDS011;37569;50.548;8.778;2022-07-29T18:47:20;4.3;;;2.3;;
51491;SDS011;37569;50.548;8.778;2022-07-29T18:52:21;3.9;;;2.2;;
51491;SDS011;37569;50.548;8.778;2022-07-29T18:57:22;2.7;;;2.2;;
51491;SDS011;37569;50.548;8.778;2022-07-29T19:02:23;2.9;;;2;;
51491;SDS011;37569;50.548;8.778;2022-07-29T19:07:24;2.8;;;2;;
51491;SDS011;37569;50.548;8.778;2022-07-29T19:12:25;2.5;;;2;;
51491;SDS011;37569;50.548;8.778;2022-07-29T19:17:26;2.3;;;2.1;;
51491;SDS011;37569;50.548;8.778;2022-07-29T19:22:27;3.1;;;2.5;;
51491;SDS011;37569;50.548;8.778;2022-07-29T19:27:28;2.6;;;2.4;;
51491;SDS011;37569;50.548;8.778;2022-07-29T19:32:29;2.2;;;2;;
51491;SDS011;37569;50.548;8.778;2022-07-29T19:37:30;2.6;;;2.2;;
51491;SDS011;37569;50.548;8.778;2022-07-29T19:42:30;2.5;;;2.1;;
51491;SDS011;37569;50.548;8.778;2022-07-29T19:47:31;4;;;2.7;;
51491;SDS011;37569;50.548;8.778;2022-07-29T19:52:32;5.7;;;3.1;;
51491;SDS011;37569;50.548;8.778;2022-07-29T19:57:33;4.6;;;3;;
51491;SDS011;37569;50.548;8.778;2022-07-29T20:02:34;4.9;;;3.1;;
51491;SDS011;37569;50.548;8.778;2022-07-29T20:07:35;5;;;3.7;;
51491;SDS011;37569;50.548;8.778;2022-07-29T20:12:35;5;;;3.7;;
51491;SDS011;37569;50.548;8.778;2022-07-29T20:17:36;5;;;4.2;;
51491;SDS011;37569;50.548;8.778;2022-07-29T20:22:37;5.1;;;4.6;;
51491;SDS011;37569;50.548;8.778;2022-07-29T20:27:38;4.9;;;4.1;;
51491;SDS011;37569;50.548;8.778;2022-07-29T20:32:39;4.6;;;4.2;;
51491;SDS011;37569;50.548;8.778;2022-07-29T20:37:40;4.7;;;4.3;;
51491;SDS011;37569;50.548;8.778;2022-07-29T20:42:40;6;;;4.4;;
51491;SDS011;37569;50.548;8.778;2022-07-29T20:47:41;5.2;;;4.4;;
51491;SDS011;37569;50.548;8.778;2022-07-29T20:52:42;5.1;;;4.5;;
51491;SDS011;37569;50.548;8.778;2022-07-29T20:57:43;4.8;;;4.4;;
51491;SDS011;37569;50.548;8.778;2022-07-29T21:02:44;5.6;;;4.3;;
51491;SDS011;37569;50.548;8.778;2022-07-29T21:07:44;4.6;;;4.2;;
51491;SDS011;37569;50.548;8.778;2022-07-29T21:12:45;5.1;;;4.6;;
51491;SDS011;37569;50.548;8.778;2022-07-29T21:17:46;6.2;;;4.8;;
51491;SDS011;37569;50.548;8.778;2022-07-29T21:22:47;5.2;;;4.7;;
51491;SDS011;37569;50.548;8.778;2022-07-29T21:27:48;5.2;;;4.6;;
51491;SDS011;37569;50.548;8.778;2022-07-29T21:32:48;6.2;;;5.4;;
51491;SDS011;37569;50.548;8.778;2022-07-29T21:37:49;6.4;;;5.3;;
51491;SDS011;37569;50.548;8.778;2022-07-29T21:42:50;6.3;;;5.5;;
51491;SDS011;37569;50.548;8.778;2022-07-29T21:47:51;6;;;5.4;;
51491;SDS011;37569;50.548;8.778;2022-07-29T21:52:52;6.7;;;6;;
51491;SDS011;37569;50.548;8.778;2022-07-29T21:57:52;6.4;;;5.4;;
51491;SDS011;37569;50.548;8.778;2022-07-29T22:02:53;6.3;;;5.7;;
51491;SDS011;37569;50.548;8.778;2022-07-29T22:07:54;7.2;;;6.5;;
51491;SDS011;37569;50.548;8.778;2022-07-29T22:12:56;7.1;;;5.5;;
51491;SDS011;37569;50.548;8.778;2022-07-29T22:17:56;6.1;;;5.5;;
51491;SDS011;37569;50.548;8.778;2022-07-29T22:22:56;6.5;;;5.7;;
51491;SDS011;37569;50.548;8.778;2022-07-29T22:27:57;7.3;;;6.6;;
51491;SDS011;37569;50.548;8.778;2022-07-29T22:32:58;7.6;;;6.8;;
51491;SDS011;37569;50.548;8.778;2022-07-29T22:37:58;7.2;;;6.3;;
51491;SDS011;37569;50.548;8.778;2022-07-29T22:42:59;5.8;;;4.8;;
51491;SDS011;37569;50.548;8.778;2022-07-29T22:48:00;5.1;;;4.4;;
51491;SDS011;37569;50.548;8.778;2022-07-29T22:53:01;6.2;;;4.8;;
51491;SDS011;37569;50.548;8.778;2022-07-29T22:58:01;5.2;;;4.2;;
51491;SDS011;37569;50.548;8.778;2022-07-29T23:03:02;5.6;;;4.5;;
51491;SDS011;37569;50.548;8.778;2022-07-29T23:08:03;4.8;;;4.4;;
51491;SDS011;37569;50.548;8.778;2022-07-29T23:13:04;4.6;;;4.2;;
51491;SDS011;37569;50.548;8.778;2022-07-29T23:18:09;6.1;;;4.7;;
51491;SDS011;37569;50.548;8.778;2022-07-29T23:23:05;4.6;;;4.2;;
51491;SDS011;37569;50.548;8.778;2022-07-29T23:28:06;5.2;;;4.7;;
51491;SDS011;37569;50.548;8.778;2022-07-29T23:33:07;5.2;;;4.4;;
51491;SDS011;37569;50.548;8.778;2022-07-29T23:38:07;5.1;;;4;;
51491;SDS011;37569;50.548;8.778;2022-07-29T23:43:08;4.7;;;4.3;;
51491;SDS011;37569;50.548;8.778;2022-07-29T23:48:09;4.8;;;4.4;;
51491;SDS011;37569;50.548;8.778;2022-07-29T23:53:09;5;;;4.5;;
51491;SDS011;37569;50.548;8.778;2022-07-29T23:58:10;5.2;;;4.7;;
